Latest Weather Observations for Wulungurru (Kintore)

IDD60801

Issued at 10:31 am CST Monday 30 March 2015 (issued every 30 minutes, with the page automatically refreshed every 10 minutes)

About weather observations | Map of weather stations | Latest weather observations for NT | Other Formats
Station Details ID: 015664 Name: WALUNGURRU AIRPORT Lat: -23.27 Lon: 129.38 Height: 454.3 m
Data from the previous 72 hours. | See also: Recent months at Wulungurru (Kintore)
Date/Time
CST
Temp
°C
App
Temp
°C
Dew
Point
Rel
Hum
%
Delta-T
°C
Wind Press
QNH
hPa
Press
MSL
hPa
Rain
since 9 am
mm
Dir
 
Spd
km/h
Gust
km/h
Spd
kts
Gust
kts
30/10:30am 32.1 24.6 1.3 14 15.5 ENE 30 39 16 21 1020.8 - 0.0
30/10:00am 30.4 23.0 1.8 16 14.4 ENE 30 37 16 20 1020.8 - 0.0
30/09:30am 29.0 22.1 2.3 18 13.5 ENE 28 35 15 19 1021.2 - 0.0
30/09:00am 27.6 21.0 4.0 22 12.1 E 28 37 15 20 1021.2 1018.3 0.0
30/08:30am 27.1 20.9 4.2 23 11.8 E 26 37 14 20 1020.8 - 0.0
30/08:00am 26.8 19.9 2.7 21 12.0 E 28 37 15 20 1020.4 - 0.0
30/07:30am 26.3 20.2 2.9 22 11.7 E 24 33 13 18 1020.1 - 0.0
30/07:00am 25.4 20.0 4.5 26 10.7 E 22 32 12 17 1019.6 - 0.0
30/06:30am 25.0 19.8 5.7 29 10.1 E 22 28 12 15 1019.3 - 0.0
30/06:00am 25.6 20.5 5.8 28 10.4 E 22 32 12 17 1018.6 1015.8 0.0
30/05:30am 26.1 20.4 5.1 26 10.9 E 24 32 13 17 1018.5 - 0.0
30/05:00am 25.8 21.4 6.4 29 10.3 E 19 24 10 13 1018.4 - 0.0
30/04:30am 25.6 21.3 7.7 32 9.7 ESE 20 26 11 14 1018.3 - 0.0
30/04:00am 26.0 21.5 7.1 30 10.2 ESE 20 28 11 15 1018.4 - 0.0
30/03:30am 24.9 22.9 8.8 36 8.9 E 9 20 5 11 1018.4 - 0.0
30/03:00am 21.6 21.9 11.0 51 6.0 CALM 0 0 0 0 1018.4 1015.5 0.0
30/02:30am 22.5 22.9 11.3 49 6.4 CALM 0 0 0 0 1018.8 - 0.0
30/02:00am 23.0 21.4 11.7 49 6.5 S 11 13 6 7 1019.0 - 0.0
30/01:30am 23.8 21.2 12.1 48 6.8 S 17 22 9 12 1019.3 - 0.0
30/01:00am 24.7 23.1 11.6 44 7.6 SE 11 17 6 9 1019.6 - 0.0
30/12:30am 24.3 22.0 11.9 45 7.2 SSE 15 19 8 10 1019.6 - 0.0
30/12:00am 23.9 22.2 12.5 49 6.6 SE 13 19 7 10 1019.9 1017.0 0.0
 
Date/Time
CST
Temp
°C
App
Temp
°C
Dew
Point
Rel
Hum
%
Delta-T
°C
Wind Press
QNH
hPa
Press
MSL
hPa
Rain
since 9 am
mm
Dir
 
Spd
km/h
Gust
km/h
Spd
kts
Gust
kts
29/11:30pm 24.5 21.8 11.8 45 7.4 SSE 17 24 9 13 1020.1 - 0.0
29/11:00pm 24.7 21.7 12.0 45 7.4 SSE 19 20 10 11 1020.4 - 0.0
29/10:30pm 24.2 22.3 13.1 50 6.6 SSE 15 20 8 11 1020.7 - 0.0
29/10:00pm 24.2 21.9 13.1 50 6.6 SSE 17 24 9 13 1020.4 - 0.0
29/09:30pm 24.0 21.6 13.8 53 6.1 SSE 19 22 10 12 1020.5 - 0.0
29/09:00pm 24.2 21.6 13.1 50 6.5 S 19 22 10 12 1020.4 1017.5 0.0
29/08:30pm 24.8 22.5 11.7 44 7.6 SSE 15 26 8 14 1020.3 - 0.0
29/08:00pm 24.1 22.0 14.8 56 5.6 SSE 19 24 10 13 1020.4 - 0.0
29/07:30pm 24.4 21.8 14.8 55 5.8 S 22 28 12 15 1020.1 - 0.0
29/07:00pm 25.4 22.4 13.6 48 7.1 SE 22 28 12 15 1019.8 - 0.0
29/06:30pm 25.6 22.5 13.5 47 7.2 SE 22 30 12 16 1019.8 - 0.0
29/06:00pm 26.0 22.7 12.8 44 7.8 SE 22 30 12 16 1019.9 1017.0 0.0
29/05:30pm 26.3 24.8 12.0 41 8.4 SE 11 17 6 9 1019.9 - 0.0
29/05:00pm 26.6 24.9 12.3 41 8.4 ESE 13 19 7 10 1019.8 - 0.0
29/04:30pm 26.4 23.8 12.1 41 8.4 SE 17 24 9 13 1019.7 - 0.0
29/04:00pm 26.9 23.8 10.2 35 9.5 ESE 17 26 9 14 1019.3 - 0.0
29/03:30pm 27.9 24.4 11.0 35 9.8 SE 20 28 11 15 1019.1 - 0.0
29/03:00pm 27.7 22.8 10.0 33 10.1 SE 26 33 14 18 1018.9 1016.0 0.0
29/02:30pm 28.1 23.9 8.4 29 11.0 ESE 20 28 11 15 1019.2 - 0.0
29/02:00pm 28.0 23.1 6.7 26 11.5 ESE 22 32 12 17 1019.1 - 0.0
29/01:30pm 28.0 22.7 5.0 23 12.1 E 22 32 12 17 1019.5 - 0.0
29/01:00pm 27.8 22.6 5.4 24 11.8 SE 22 32 12 17 1020.2 - 0.0
29/12:30pm 28.1 22.6 1.6 18 13.1 SE 20 26 11 14 1020.4 - 0.0
29/12:00pm 28.1 22.6 1.6 18 13.1 SE 20 28 11 15 1020.5 1017.6 0.0
29/11:30am 27.9 21.8 0.6 17 13.3 ESE 22 30 12 16 1020.5 - 0.0
29/11:00am 27.8 22.1 0.5 17 13.2 E 20 26 11 14 1020.8 - 0.0
29/10:30am 27.5 21.8 0.3 17 13.1 E 20 28 11 15 1020.9 - 0.0
29/10:00am 27.4 21.2 -0.6 16 13.3 E 22 30 12 16 1021.2 - 0.0
29/09:30am 26.9 21.2 -1.0 16 13.1 E 19 24 10 13 1021.0 - 0.0
29/09:00am 26.8 20.5 -1.1 16 13.0 E 22 32 12 17 1020.7 1017.9 0.0
29/08:30am 27.1 22.3 0.0 17 13.0 E 15 22 8 12 1020.2 - 0.0
29/08:00am 26.2 21.9 3.4 23 11.5 ESE 15 20 8 11 1020.0 - 0.0
29/07:30am 25.7 22.2 5.3 27 10.6 ESE 13 17 7 9 1019.8 - 0.0
29/07:00am 23.8 21.7 9.8 41 7.8 S 11 15 6 8 1019.5 - 0.0
29/06:30am 23.3 23.1 13.5 54 5.8 E 7 13 4 7 1019.3 - 0.0
29/06:00am 23.5 23.7 14.8 58 5.3 NNE 7 9 4 5 1019.0 1016.1 0.0
29/05:30am 24.2 24.3 12.8 49 6.7 NE 4 6 2 3 1018.4 - 0.0
29/05:00am 23.7 22.8 12.7 50 6.4 N 9 11 5 6 1018.3 - 0.0
29/04:30am 26.4 24.6 9.3 34 9.6 NE 9 15 5 8 1017.8 - 0.0
29/04:00am 25.4 24.0 9.7 37 8.8 NE 7 11 4 6 1017.4 - 0.0
29/03:30am 26.3 23.1 8.3 32 9.9 SE 15 19 8 10 1017.2 - 0.0
29/03:00am 26.3 22.9 7.8 31 10.1 E 15 17 8 9 1017.6 1014.7 0.0
29/02:30am 25.8 22.9 8.3 33 9.6 E 13 20 7 11 1017.8 - 0.0
29/02:00am 26.6 23.6 6.1 27 10.9 ENE 11 13 6 7 1018.4 - 0.0
29/01:30am 27.2 23.7 3.7 22 12.0 NNE 11 17 6 9 1018.5 - 0.0
29/01:00am 27.8 23.7 2.1 19 12.8 E 13 17 7 9 1018.5 - 0.0
29/12:30am 27.6 23.1 4.0 22 12.2 SSE 17 26 9 14 1018.3 - 0.0
29/12:00am 27.7 22.8 5.3 24 11.8 SSE 20 26 11 14 1018.5 1015.6 0.0
 
Date/Time
CST
Temp
°C
App
Temp
°C
Dew
Point
Rel
Hum
%
Delta-T
°C
Wind Press
QNH
hPa
Press
MSL
hPa
Rain
since 9 am
mm
Dir
 
Spd
km/h
Gust
km/h
Spd
kts
Gust
kts
28/11:30pm 27.7 22.6 5.9 25 11.6 SSE 22 30 12 16 1018.6 - 0.0
28/11:00pm 27.8 22.8 6.6 26 11.4 SE 22 28 12 15 1018.8 - 0.0
28/10:30pm 28.0 23.4 6.7 26 11.5 SSE 20 26 11 14 1019.2 - 0.0
28/10:00pm 28.3 24.4 7.0 26 11.6 SSE 17 22 9 12 1019.0 - 0.0
28/09:30pm 29.0 25.6 7.6 26 11.8 SSE 15 19 8 10 1018.9 - 0.0
28/09:00pm 29.2 26.2 7.7 26 11.9 SSE 13 17 7 9 1018.5 1015.6 0.0
28/08:30pm 29.3 25.9 7.8 26 11.9 S 15 17 8 9 1018.4 - 0.0
28/08:00pm 30.0 26.7 6.6 23 12.8 SE 13 17 7 9 1018.2 - 0.0
28/07:30pm 30.2 26.5 6.1 22 13.1 SE 15 19 8 10 1017.8 - 0.0
28/07:00pm 30.3 26.2 6.2 22 13.1 SSE 17 24 9 13 1017.4 - 0.0
28/06:30pm 30.7 26.0 5.9 21 13.4 S 20 28 11 15 1016.9 - 0.0
28/06:00pm 32.3 28.3 5.0 18 14.7 SSE 15 22 8 12 1016.3 1013.4 0.0
28/05:30pm 32.7 29.0 4.5 17 15.1 S 13 24 7 13 1016.0 - 0.0
28/05:00pm 33.7 30.6 3.5 15 16.0 E 9 15 5 8 1015.8 - 0.0
28/04:30pm 33.2 31.3 3.1 15 15.8 SW 2 7 1 4 1015.6 - 0.0
28/04:00pm 33.7 30.0 2.5 14 16.2 N 11 19 6 10 1015.5 - 0.0
28/03:30pm 34.3 30.9 1.9 13 16.8 E 9 19 5 10 1015.5 - 0.0
28/03:00pm 33.6 29.0 1.4 13 16.4 ESE 15 26 8 14 1015.9 1013.0 0.0
28/02:30pm 34.1 29.9 1.8 13 16.7 NNE 13 20 7 11 1016.3 - 0.0
28/02:00pm 33.5 29.2 1.3 13 16.4 NNE 13 19 7 10 1016.9 - 0.0
28/01:30pm 33.0 29.6 2.0 14 15.9 N 9 15 5 8 1017.3 - 0.0
28/01:00pm 33.4 29.1 1.3 13 16.4 NE 13 35 7 19 1017.7 - 0.0
28/12:30pm 33.1 28.8 1.0 13 16.2 NNE 13 19 7 10 1018.4 - 0.0
28/12:00pm 31.6 26.5 0.9 14 15.3 NE 17 30 9 16 1019.1 1016.2 0.0
28/11:30am 31.4 26.7 0.7 14 15.3 ENE 15 24 8 13 1019.4 - 0.0
28/11:00am 30.6 25.5 1.0 15 14.7 ENE 17 26 9 14 1019.4 - 0.0
28/10:30am 29.4 23.8 0.1 15 14.3 NNE 19 24 10 13 1020.0 - 0.0
28/10:00am 28.5 23.1 1.1 17 13.5 NE 19 30 10 16 1020.0 - 0.0
28/09:30am 26.5 20.4 0.3 18 12.5 ENE 22 28 12 15 1019.9 - 0.0
28/09:00am 25.6 19.0 -0.5 18 12.2 ENE 24 32 13 17 1019.9 1017.0 0.0
28/08:30am 24.5 18.3 -0.6 19 11.6 ENE 22 30 12 16 1019.6 - 0.0
28/08:00am 24.2 17.5 -0.9 19 11.6 ENE 24 32 13 17 1019.4 - 0.0
28/07:30am 23.6 17.6 -1.3 19 11.3 ENE 20 28 11 15 1019.1 - 0.0
28/07:00am 23.4 17.0 -1.5 19 11.3 ENE 22 30 12 16 1018.8 - 0.0
28/06:30am 23.4 16.6 -1.5 19 11.3 ENE 24 32 13 17 1018.3 - 0.0
28/06:00am 23.7 17.4 -1.3 19 11.4 ENE 22 32 12 17 1017.9 1015.0 0.0
28/05:30am 23.9 17.7 -0.4 20 11.3 ENE 22 30 12 16 1017.6 - 0.0
28/05:00am 24.3 18.1 -0.1 20 11.4 E 22 30 12 16 1017.5 - 0.0
28/04:30am 24.7 19.1 0.9 21 11.4 E 20 26 11 14 1017.3 - 0.0
28/04:00am 25.4 19.5 1.5 21 11.6 E 22 32 12 17 1017.4 - 0.0
28/03:30am 25.9 20.0 1.9 21 11.8 E 22 30 12 16 1017.7 - 0.0
28/03:00am 25.9 20.8 3.2 23 11.4 E 19 24 10 13 1017.9 1015.0 0.0
28/02:30am 26.3 21.3 3.5 23 11.5 E 19 24 10 13 1018.0 - 0.0
28/02:00am 26.7 21.1 3.2 22 11.9 E 22 28 12 15 1018.0 - 0.0
28/01:30am 28.1 22.5 3.7 21 12.5 E 22 35 12 19 1017.9 - 0.0
28/01:00am 27.5 23.8 4.5 23 11.9 ESE 13 19 7 10 1018.3 - 0.0
28/12:30am 28.1 23.6 4.4 22 12.3 ESE 17 20 9 11 1018.5 - 0.0
28/12:00am 28.8 24.4 5.0 22 12.5 ESE 17 24 9 13 1018.6 1015.8 0.0
 
Date/Time
CST
Temp
°C
App
Temp
°C
Dew
Point
Rel
Hum
%
Delta-T
°C
Wind Press
QNH
hPa
Press
MSL
hPa
Rain
since 9 am
mm
Dir
 
Spd
km/h
Gust
km/h
Spd
kts
Gust
kts
27/11:30pm 29.9 26.3 5.2 21 13.2 E 13 17 7 9 1018.6 - 0.0
27/11:00pm 30.3 26.5 5.6 21 13.3 E 15 20 8 11 1018.8 - 0.0
27/10:30pm 29.8 26.8 5.8 22 12.9 E 11 13 6 7 1018.6 - 0.0
27/10:00pm 29.2 25.9 6.6 24 12.3 E 13 15 7 8 1018.8 - 0.0
27/09:30pm 29.3 26.3 6.0 23 12.5 E 11 13 6 7 1019.0 - 0.0
27/09:00pm 29.7 27.0 5.7 22 12.9 E 9 13 5 7 1018.9 1016.0 0.0
27/08:30pm 30.6 27.6 5.8 21 13.4 ENE 11 13 6 7 1018.8 - 0.0
27/08:00pm 31.3 28.2 5.7 20 13.9 NE 11 17 6 9 1018.5 - 0.0
27/07:30pm 31.7 28.5 5.3 19 14.2 ENE 11 17 6 9 1017.9 - 0.0
27/07:00pm 32.3 28.7 5.0 18 14.7 E 13 19 7 10 1017.5 - 0.0
27/06:30pm 32.7 29.2 5.3 18 14.8 E 13 19 7 10 1017.4 - 0.0
27/06:00pm 33.1 29.6 5.6 18 15.0 E 13 20 7 11 1017.2 1014.3 0.0
27/05:30pm 33.3 29.3 5.0 17 15.3 ENE 15 19 8 10 1017.0 - 0.0
27/05:00pm 34.0 30.1 5.5 17 15.6 ENE 15 22 8 12 1016.9 - 0.0
27/04:30pm 34.1 28.9 5.6 17 15.6 ESE 22 28 12 15 1016.9 - 0.0
27/04:00pm 34.4 30.4 5.0 16 16.0 E 15 22 8 12 1017.1 - 0.0
27/03:30pm 34.0 30.1 5.5 17 15.6 E 15 30 8 16 1017.3 - 0.0
27/03:00pm 34.1 30.3 5.6 17 15.6 ENE 15 28 8 15 1017.8 1014.9 0.0
27/02:30pm 33.2 29.4 5.7 18 15.0 ENE 15 26 8 14 1018.3 - 0.0
27/02:00pm 33.1 28.3 5.6 18 15.0 E 20 26 11 14 1019.0 - 0.0
27/01:30pm 32.3 28.1 5.7 19 14.5 E 17 33 9 18 1019.6 - 0.0
27/01:00pm 30.9 26.0 5.3 20 13.7 E 20 28 11 15 1020.3 - 0.0
27/12:30pm 30.6 26.0 5.8 21 13.4 E 19 30 10 16 1021.0 - 0.0
27/12:00pm 30.6 26.0 5.8 21 13.4 E 19 32 10 17 1021.7 1018.8 0.0
27/11:30am 29.3 24.5 5.4 22 12.7 ENE 20 28 11 15 1022.4 - 0.0
27/11:00am 28.4 23.5 5.3 23 12.2 ENE 20 32 11 17 1022.8 - 0.0

Other Formats:

Comma delimited format used in spreadsheet applications
http://www.bom.gov.au/fwo/IDD60801/IDD60801.94321.axf

JavaScript Object Notation format (JSON) in row-major order
http://www.bom.gov.au/fwo/IDD60801/IDD60801.94321.json